sensor_id;sensor_type;location;lat;lon;timestamp;pressure;altitude;pressure_sealevel;temperature;humidity
55418;BME280;41287;47.554;7.844;2022-12-18T00:01:50;98897.22;;;15.86;65.85
55418;BME280;41287;47.554;7.844;2022-12-18T00:04:22;98894.53;;;15.86;65.90
55418;BME280;41287;47.554;7.844;2022-12-18T00:06:48;98900.72;;;15.86;65.89
55418;BME280;41287;47.554;7.844;2022-12-18T00:09:13;98913.44;;;15.86;65.97
55418;BME280;41287;47.554;7.844;2022-12-18T00:11:39;98899.63;;;15.87;65.81
55418;BME280;41287;47.554;7.844;2022-12-18T00:14:04;98894.22;;;15.87;65.90
55418;BME280;41287;47.554;7.844;2022-12-18T00:16:30;98895.31;;;15.86;65.84
55418;BME280;41287;47.554;7.844;2022-12-18T00:18:58;98897.75;;;15.88;65.94
55418;BME280;41287;47.554;7.844;2022-12-18T00:21:25;98892.63;;;15.86;65.90
55418;BME280;41287;47.554;7.844;2022-12-18T00:23:53;98893.44;;;15.87;65.89
55418;BME280;41287;47.554;7.844;2022-12-18T00:26:23;98899.63;;;15.87;65.88
55418;BME280;41287;47.554;7.844;2022-12-18T00:28:49;98900.44;;;15.88;65.83
55418;BME280;41287;47.554;7.844;2022-12-18T00:31:19;98891.53;;;15.87;65.95
55418;BME280;41287;47.554;7.844;2022-12-18T00:33:44;98898.03;;;15.86;65.96
55418;BME280;41287;47.554;7.844;2022-12-18T00:38:37;98902.34;;;15.87;65.84
55418;BME280;41287;47.554;7.844;2022-12-18T00:41:03;98905.03;;;15.87;65.77
55418;BME280;41287;47.554;7.844;2022-12-18T00:43:31;98899.63;;;15.87;65.95
55418;BME280;41287;47.554;7.844;2022-12-18T00:45:56;98899.63;;;15.87;65.92
55418;BME280;41287;47.554;7.844;2022-12-18T00:48:21;98905.84;;;15.88;65.66
55418;BME280;41287;47.554;7.844;2022-12-18T00:50:48;98905.03;;;15.87;65.81
55418;BME280;41287;47.554;7.844;2022-12-18T00:53:14;98899.34;;;15.89;65.78
55418;BME280;41287;47.554;7.844;2022-12-18T00:55:40;98897.75;;;15.88;65.82
55418;BME280;41287;47.554;7.844;2022-12-18T00:58:06;98897.75;;;15.88;65.83
55418;BME280;41287;47.554;7.844;2022-12-18T01:00:34;98903.16;;;15.88;65.92
55418;BME280;41287;47.554;7.844;2022-12-18T01:02:59;98912.06;;;15.88;65.80
55418;BME280;41287;47.554;7.844;2022-12-18T01:05:25;98912.88;;;15.89;65.92
55418;BME280;41287;47.554;7.844;2022-12-18T01:07:50;98918.28;;;15.89;65.73
55418;BME280;41287;47.554;7.844;2022-12-18T01:10:17;98917.47;;;15.88;65.78
55418;BME280;41287;47.554;7.844;2022-12-18T01:12:43;98915.56;;;15.89;65.74
55418;BME280;41287;47.554;7.844;2022-12-18T01:15:09;98921.78;;;15.89;65.71
55418;BME280;41287;47.554;7.844;2022-12-18T01:17:35;98920.97;;;15.89;65.71
55418;BME280;41287;47.554;7.844;2022-12-18T01:20:02;98920.97;;;15.89;65.74
55418;BME280;41287;47.554;7.844;2022-12-18T01:22:28;98915.56;;;15.89;65.79
55418;BME280;41287;47.554;7.844;2022-12-18T01:24:53;98922.88;;;15.88;65.74
55418;BME280;41287;47.554;7.844;2022-12-18T01:27:18;98926.38;;;15.89;65.91
55418;BME280;41287;47.554;7.844;2022-12-18T01:29:43;98936.38;;;15.88;65.84
55418;BME280;41287;47.554;7.844;2022-12-18T01:32:11;98933.69;;;15.88;65.81
55418;BME280;41287;47.554;7.844;2022-12-18T01:34:37;98936.38;;;15.88;65.76
55418;BME280;41287;47.554;7.844;2022-12-18T01:37:04;98940.97;;;15.88;65.86
55418;BME280;41287;47.554;7.844;2022-12-18T01:39:29;98940.69;;;15.89;65.90
55418;BME280;41287;47.554;7.844;2022-12-18T01:41:55;98944.50;;;15.88;65.75
55418;BME280;41287;47.554;7.844;2022-12-18T01:44:53;98955.59;;;15.87;65.85
55418;BME280;41287;47.554;7.844;2022-12-18T01:47:45;98953.69;;;15.87;65.81
55418;BME280;41287;47.554;7.844;2022-12-18T01:55:31;98945.56;;;15.87;65.77
55418;BME280;41287;47.554;7.844;2022-12-18T01:57:59;98954.50;;;15.88;65.81
55418;BME280;41287;47.554;7.844;2022-12-18T02:00:26;98960.72;;;15.88;65.76
55418;BME280;41287;47.554;7.844;2022-12-18T02:02:52;98949.09;;;15.88;65.78
55418;BME280;41287;47.554;7.844;2022-12-18T02:05:24;98945.88;;;15.86;65.85
55418;BME280;41287;47.554;7.844;2022-12-18T02:08:10;98948.56;;;15.86;65.82
55418;BME280;41287;47.554;7.844;2022-12-18T02:10:47;98947.47;;;15.87;65.76
55418;BME280;41287;47.554;7.844;2022-12-18T02:13:20;98946.66;;;15.86;65.69
55418;BME280;41287;47.554;7.844;2022-12-18T02:18:39;98957.47;;;15.86;65.83
55418;BME280;41287;47.554;7.844;2022-12-18T02:26:37;98939.38;;;15.87;65.73
55418;BME280;41287;47.554;7.844;2022-12-18T02:29:09;98954.78;;;15.86;65.85
55418;BME280;41287;47.554;7.844;2022-12-18T02:31:47;98946.66;;;15.86;65.76
55418;BME280;41287;47.554;7.844;2022-12-18T02:34:17;98944.78;;;15.87;65.82
55418;BME280;41287;47.554;7.844;2022-12-18T02:36:44;98950.47;;;15.85;65.85
55418;BME280;41287;47.554;7.844;2022-12-18T02:39:11;98966.69;;;15.85;65.82
55418;BME280;41287;47.554;7.844;2022-12-18T02:41:38;98970.19;;;15.86;65.73
55418;BME280;41287;47.554;7.844;2022-12-18T02:44:09;98955.06;;;15.85;65.87
55418;BME280;41287;47.554;7.844;2022-12-18T02:46:44;98963.97;;;15.85;65.89
55418;BME280;41287;47.554;7.844;2022-12-18T02:49:35;98971.28;;;15.85;65.74
55418;BME280;41287;47.554;7.844;2022-12-18T02:52:18;98956.97;;;15.84;65.70
55418;BME280;41287;47.554;7.844;2022-12-18T02:54:52;98953.97;;;15.86;65.73
55418;BME280;41287;47.554;7.844;2022-12-18T03:00:10;98966.16;;;15.83;65.79
55418;BME280;41287;47.554;7.844;2022-12-18T03:02:52;98968.88;;;15.83;65.71
55418;BME280;41287;47.554;7.844;2022-12-18T03:05:24;98962.38;;;15.84;65.70
55418;BME280;41287;47.554;7.844;2022-12-18T03:08:05;98972.69;;;15.82;65.86
55418;BME280;41287;47.554;7.844;2022-12-18T03:10:35;98966.97;;;15.84;65.76
55418;BME280;41287;47.554;7.844;2022-12-18T03:13:12;98968.88;;;15.83;65.81
55418;BME280;41287;47.554;7.844;2022-12-18T03:15:45;98965.38;;;15.83;65.92
55418;BME280;41287;47.554;7.844;2022-12-18T03:18:19;98966.47;;;15.82;65.83
55418;BME280;41287;47.554;7.844;2022-12-18T03:20:49;98975.38;;;15.82;65.73
55418;BME280;41287;47.554;7.844;2022-12-18T03:23:19;98973.50;;;15.83;65.73
55418;BME280;41287;47.554;7.844;2022-12-18T03:25:47;98967.28;;;15.82;65.64
55418;BME280;41287;47.554;7.844;2022-12-18T03:28:20;98968.38;;;15.81;65.91
55418;BME280;41287;47.554;7.844;2022-12-18T03:30:47;98967.28;;;15.82;65.73
55418;BME280;41287;47.554;7.844;2022-12-18T03:33:24;98965.69;;;15.81;65.88
55418;BME280;41287;47.554;7.844;2022-12-18T03:35:51;98971.88;;;15.82;65.81
55418;BME280;41287;47.554;7.844;2022-12-18T03:38:16;98968.38;;;15.81;65.84
55418;BME280;41287;47.554;7.844;2022-12-18T03:40:53;98971.06;;;15.81;65.75
55418;BME280;41287;47.554;7.844;2022-12-18T03:46:09;98969.19;;;15.82;65.80
55418;BME280;41287;47.554;7.844;2022-12-18T03:48:41;98969.19;;;15.82;65.78
55418;BME280;41287;47.554;7.844;2022-12-18T03:51:26;98973.25;;;15.79;65.72
55418;BME280;41287;47.554;7.844;2022-12-18T03:53:59;98964.34;;;15.78;65.86
55418;BME280;41287;47.554;7.844;2022-12-18T03:56:29;98967.28;;;15.82;65.70
55418;BME280;41287;47.554;7.844;2022-12-18T03:58:57;98957.56;;;15.81;65.70
55418;BME280;41287;47.554;7.844;2022-12-18T04:01:31;98967.56;;;15.80;65.86
55418;BME280;41287;47.554;7.844;2022-12-18T04:03:59;98971.06;;;15.81;65.82
55418;BME280;41287;47.554;7.844;2022-12-18T04:06:26;98969.47;;;15.80;65.90
55418;BME280;41287;47.554;7.844;2022-12-18T04:08:55;98974.88;;;15.80;65.81
55418;BME280;41287;47.554;7.844;2022-12-18T04:11:21;98967.84;;;15.79;65.88
55418;BME280;41287;47.554;7.844;2022-12-18T04:13:46;98965.16;;;15.79;65.71
55418;BME280;41287;47.554;7.844;2022-12-18T04:16:12;98968.66;;;15.79;65.71
55418;BME280;41287;47.554;7.844;2022-12-18T04:18:39;98969.75;;;15.78;65.74
55418;BME280;41287;47.554;7.844;2022-12-18T04:21:04;98969.75;;;15.78;65.74
55418;BME280;41287;47.554;7.844;2022-12-18T04:23:30;98969.75;;;15.78;65.89
55418;BME280;41287;47.554;7.844;2022-12-18T04:25:55;98974.06;;;15.79;65.75
55418;BME280;41287;47.554;7.844;2022-12-18T04:28:21;98975.16;;;15.78;65.84
55418;BME280;41287;47.554;7.844;2022-12-18T04:30:46;98969.75;;;15.78;65.81
55418;BME280;41287;47.554;7.844;2022-12-18T04:33:17;98971.66;;;15.78;65.84
55418;BME280;41287;47.554;7.844;2022-12-18T04:35:42;98960.84;;;15.78;65.85
55418;BME280;41287;47.554;7.844;2022-12-18T04:38:08;98964.34;;;15.78;65.66
55418;BME280;41287;47.554;7.844;2022-12-18T04:40:37;98961.94;;;15.77;65.85
55418;BME280;41287;47.554;7.844;2022-12-18T04:43:03;98961.66;;;15.78;65.78
55418;BME280;41287;47.554;7.844;2022-12-18T04:45:29;98966.25;;;15.78;65.70
55418;BME280;41287;47.554;7.844;2022-12-18T04:47:57;98963.84;;;15.76;65.91
55418;BME280;41287;47.554;7.844;2022-12-18T04:50:23;98966.25;;;15.78;65.74
55418;BME280;41287;47.554;7.844;2022-12-18T04:52:49;98961.13;;;15.76;65.75
55418;BME280;41287;47.554;7.844;2022-12-18T04:55:14;98964.94;;;15.75;65.84
55418;BME280;41287;47.554;7.844;2022-12-18T04:57:42;98966.53;;;15.76;65.79
55418;BME280;41287;47.554;7.844;2022-12-18T05:00:08;98961.13;;;15.76;65.82
55418;BME280;41287;47.554;7.844;2022-12-18T05:02:35;98963.84;;;15.76;65.72
55418;BME280;41287;47.554;7.844;2022-12-18T05:05:00;98956.53;;;15.77;65.76
55418;BME280;41287;47.554;7.844;2022-12-18T05:07:25;98966.53;;;15.76;65.71
55418;BME280;41287;47.554;7.844;2022-12-18T05:09:51;98956.84;;;15.75;65.80
55418;BME280;41287;47.554;7.844;2022-12-18T05:12:16;98965.75;;;15.76;65.78
55418;BME280;41287;47.554;7.844;2022-12-18T05:14:42;98961.13;;;15.76;65.87
55418;BME280;41287;47.554;7.844;2022-12-18T05:17:07;98956.84;;;15.75;65.70
55418;BME280;41287;47.554;7.844;2022-12-18T05:19:32;98967.66;;;15.75;65.60
55418;BME280;41287;47.554;7.844;2022-12-18T05:21:58;98969.56;;;15.75;65.75
55418;BME280;41287;47.554;7.844;2022-12-18T05:24:25;98969.56;;;15.75;65.71
55418;BME280;41287;47.554;7.844;2022-12-18T05:26:52;98976.84;;;15.74;65.89
55418;BME280;41287;47.554;7.844;2022-12-18T05:29:17;98971.44;;;15.74;65.73
55418;BME280;41287;47.554;7.844;2022-12-18T05:31:43;98979.56;;;15.74;65.86
55418;BME280;41287;47.554;7.844;2022-12-18T05:34:08;98984.97;;;15.74;65.82
55418;BME280;41287;47.554;7.844;2022-12-18T05:36:35;98986.84;;;15.74;65.67
55418;BME280;41287;47.554;7.844;2022-12-18T05:39:01;98984.97;;;15.74;65.78
55418;BME280;41287;47.554;7.844;2022-12-18T05:41:27;98984.97;;;15.74;65.84
55418;BME280;41287;47.554;7.844;2022-12-18T05:43:52;98986.06;;;15.73;65.83
55418;BME280;41287;47.554;7.844;2022-12-18T05:46:18;98983.34;;;15.73;65.95
55418;BME280;41287;47.554;7.844;2022-12-18T05:48:44;98983.34;;;15.73;66.04
55418;BME280;41287;47.554;7.844;2022-12-18T05:51:12;98986.06;;;15.73;66.01
55418;BME280;41287;47.554;7.844;2022-12-18T05:53:38;98983.34;;;15.73;65.92
55418;BME280;41287;47.554;7.844;2022-12-18T05:56:06;98994.69;;;15.75;65.99
55418;BME280;41287;47.554;7.844;2022-12-18T05:58:34;98989.56;;;15.74;65.92
55418;BME280;41287;47.554;7.844;2022-12-18T06:01:13;98992.53;;;15.72;65.66
55418;BME280;41287;47.554;7.844;2022-12-18T06:03:39;98992.25;;;15.74;65.73
55418;BME280;41287;47.554;7.844;2022-12-18T06:06:22;98996.06;;;15.73;65.87
55418;BME280;41287;47.554;7.844;2022-12-18T06:08:49;99006.06;;;15.72;65.80
55418;BME280;41287;47.554;7.844;2022-12-18T06:11:17;99010.66;;;15.72;65.77
55418;BME280;41287;47.554;7.844;2022-12-18T06:13:42;99009.84;;;15.71;65.81
55418;BME280;41287;47.554;7.844;2022-12-18T06:16:08;99011.47;;;15.72;65.91
55418;BME280;41287;47.554;7.844;2022-12-18T06:18:34;99014.16;;;15.72;65.90
55418;BME280;41287;47.554;7.844;2022-12-18T06:21:01;99011.47;;;15.72;65.88
55418;BME280;41287;47.554;7.844;2022-12-18T06:23:28;99012.25;;;15.73;65.72
55418;BME280;41287;47.554;7.844;2022-12-18T06:25:54;99028.47;;;15.73;65.72
55418;BME280;41287;47.554;7.844;2022-12-18T06:28:19;99014.16;;;15.72;65.88
55418;BME280;41287;47.554;7.844;2022-12-18T06:30:45;99022.25;;;15.72;65.87
55418;BME280;41287;47.554;7.844;2022-12-18T06:33:14;99025.25;;;15.71;65.82
55418;BME280;41287;47.554;7.844;2022-12-18T06:35:40;99025.25;;;15.71;65.85
55418;BME280;41287;47.554;7.844;2022-12-18T06:38:05;99027.97;;;15.71;65.42
55418;BME280;41287;47.554;7.844;2022-12-18T06:40:31;99022.56;;;15.71;65.65
55418;BME280;41287;47.554;7.844;2022-12-18T06:42:57;99030.38;;;15.72;65.86
55418;BME280;41287;47.554;7.844;2022-12-18T06:45:25;99031.47;;;15.71;65.76
55418;BME280;41287;47.554;7.844;2022-12-18T06:47:50;99036.06;;;15.71;65.66
55418;BME280;41287;47.554;7.844;2022-12-18T06:50:16;99036.88;;;15.71;65.65
55418;BME280;41287;47.554;7.844;2022-12-18T06:52:41;99028.75;;;15.71;65.74
55418;BME280;41287;47.554;7.844;2022-12-18T06:55:09;99037.66;;;15.72;65.87
55418;BME280;41287;47.554;7.844;2022-12-18T06:57:38;99027.97;;;15.71;65.73
55418;BME280;41287;47.554;7.844;2022-12-18T07:00:05;99034.16;;;15.71;65.74
55418;BME280;41287;47.554;7.844;2022-12-18T07:02:31;99023.34;;;15.71;65.68
55418;BME280;41287;47.554;7.844;2022-12-18T07:04:57;99038.75;;;15.71;65.45
55418;BME280;41287;47.554;7.844;2022-12-18T07:07:22;99043.06;;;15.72;65.79
55418;BME280;41287;47.554;7.844;2022-12-18T07:09:50;99041.47;;;15.71;65.87
55418;BME280;41287;47.554;7.844;2022-12-18T07:12:16;99036.06;;;15.71;65.76
55418;BME280;41287;47.554;7.844;2022-12-18T07:14:41;99041.47;;;15.71;65.74
55418;BME280;41287;47.554;7.844;2022-12-18T07:17:06;99046.88;;;15.71;65.54
55418;BME280;41287;47.554;7.844;2022-12-18T07:19:32;99042.28;;;15.71;65.76
55418;BME280;41287;47.554;7.844;2022-12-18T07:21:58;99041.47;;;15.71;65.73
55418;BME280;41287;47.554;7.844;2022-12-18T07:24:23;99037.94;;;15.70;65.92
55418;BME280;41287;47.554;7.844;2022-12-18T07:26:48;99047.69;;;15.71;65.74
55418;BME280;41287;47.554;7.844;2022-12-18T07:29:14;99039.84;;;15.70;65.75
55418;BME280;41287;47.554;7.844;2022-12-18T07:31:41;99052.28;;;15.71;65.72
55418;BME280;41287;47.554;7.844;2022-12-18T07:34:13;99047.97;;;15.70;65.86
55418;BME280;41287;47.554;7.844;2022-12-18T07:36:38;99049.84;;;15.69;65.30
55418;BME280;41287;47.554;7.844;2022-12-18T07:39:04;99061.47;;;15.70;65.82
55418;BME280;41287;47.554;7.844;2022-12-18T07:41:29;99051.47;;;15.70;65.70
55418;BME280;41287;47.554;7.844;2022-12-18T07:43:55;99054.47;;;15.69;65.71
55418;BME280;41287;47.554;7.844;2022-12-18T07:46:20;99062.28;;;15.70;65.78
55418;BME280;41287;47.554;7.844;2022-12-18T07:48:45;99061.47;;;15.70;66.36
55418;BME280;41287;47.554;7.844;2022-12-18T07:51:11;99063.06;;;15.71;66.92
55418;BME280;41287;47.554;7.844;2022-12-18T07:53:37;99081.16;;;15.75;67.05
55418;BME280;41287;47.554;7.844;2022-12-18T07:56:05;99088.66;;;15.78;67.14
55418;BME280;41287;47.554;7.844;2022-12-18T07:58:33;99096.19;;;15.82;66.85
55418;BME280;41287;47.554;7.844;2022-12-18T08:01:07;99086.69;;;15.84;67.17
55418;BME280;41287;47.554;7.844;2022-12-18T08:03:33;99109.63;;;15.87;67.61
55418;BME280;41287;47.554;7.844;2022-12-18T08:06:01;99103.13;;;15.88;68.41
55418;BME280;41287;47.554;7.844;2022-12-18T08:08:27;99105.25;;;15.91;69.23
55418;BME280;41287;47.554;7.844;2022-12-18T08:10:52;99103.88;;;15.93;69.82
55418;BME280;41287;47.554;7.844;2022-12-18T08:13:17;99106.78;;;15.97;70.67
55418;BME280;41287;47.554;7.844;2022-12-18T08:15:43;99103.50;;;16.00;71.66
55418;BME280;41287;47.554;7.844;2022-12-18T08:18:08;99104.03;;;16.02;72.27
55418;BME280;41287;47.554;7.844;2022-12-18T08:20:34;99112.63;;;16.04;72.97
55418;BME280;41287;47.554;7.844;2022-12-18T08:22:59;99108.56;;;16.06;73.45
55418;BME280;41287;47.554;7.844;2022-12-18T08:25:26;99103.66;;;16.08;74.39
55418;BME280;41287;47.554;7.844;2022-12-18T08:27:51;99113.88;;;16.11;74.71
55418;BME280;41287;47.554;7.844;2022-12-18T08:30:17;99116.00;;;16.14;75.66
55418;BME280;41287;47.554;7.844;2022-12-18T08:32:42;99119.25;;;16.16;75.99
55418;BME280;41287;47.554;7.844;2022-12-18T08:35:08;99116.75;;;16.20;76.55
55418;BME280;41287;47.554;7.844;2022-12-18T08:37:34;99119.97;;;16.22;77.30
55418;BME280;41287;47.554;7.844;2022-12-18T08:39:59;99117.47;;;16.26;77.47
55418;BME280;41287;47.554;7.844;2022-12-18T08:42:25;99116.09;;;16.28;77.86
55418;BME280;41287;47.554;7.844;2022-12-18T08:45:08;99125.44;;;16.36;78.41
55418;BME280;41287;47.554;7.844;2022-12-18T08:47:34;99127.78;;;16.42;79.29
55418;BME280;41287;47.554;7.844;2022-12-18T08:49:59;99123.97;;;16.43;78.27
55418;BME280;41287;47.554;7.844;2022-12-18T08:52:24;99108.84;;;16.42;77.95
55418;BME280;41287;47.554;7.844;2022-12-18T08:54:50;99111.03;;;16.40;77.74
55418;BME280;41287;47.554;7.844;2022-12-18T08:57:16;99114.53;;;16.41;77.73
55418;BME280;41287;47.554;7.844;2022-12-18T08:59:41;99109.94;;;16.41;77.30
55418;BME280;41287;47.554;7.844;2022-12-18T09:02:09;99104.53;;;16.41;77.63
55418;BME280;41287;47.554;7.844;2022-12-18T09:04:35;99108.84;;;16.42;77.53
55418;BME280;41287;47.554;7.844;2022-12-18T09:07:02;99108.84;;;16.42;77.67
55418;BME280;41287;47.554;7.844;2022-12-18T09:09:28;99122.09;;;16.44;77.63
55418;BME280;41287;47.554;7.844;2022-12-18T09:11:53;99121.75;;;16.45;78.71
55418;BME280;41287;47.554;7.844;2022-12-18T09:14:18;99133.56;;;16.36;70.08
55418;BME280;41287;47.554;7.844;2022-12-18T09:16:43;99136.97;;;16.04;62.57
55418;BME280;41287;47.554;7.844;2022-12-18T09:19:12;99146.69;;;15.62;53.97
55418;BME280;41287;47.554;7.844;2022-12-18T09:21:38;99131.44;;;15.48;60.23
55418;BME280;41287;47.554;7.844;2022-12-18T09:24:11;99132.78;;;15.45;62.47
55418;BME280;41287;47.554;7.844;2022-12-18T09:26:37;99132.72;;;15.50;62.96
55418;BME280;41287;47.554;7.844;2022-12-18T09:29:03;99132.19;;;15.53;63.18
55418;BME280;41287;47.554;7.844;2022-12-18T09:31:28;99126.72;;;15.58;63.68
55418;BME280;41287;47.554;7.844;2022-12-18T09:33:55;99121.56;;;15.62;64.11
55418;BME280;41287;47.554;7.844;2022-12-18T09:36:20;99126.38;;;15.65;64.61
55418;BME280;41287;47.554;7.844;2022-12-18T09:38:46;99120.41;;;15.68;64.96
55418;BME280;41287;47.554;7.844;2022-12-18T09:41:39;99126.63;;;15.68;65.63
55418;BME280;41287;47.554;7.844;2022-12-18T09:44:10;99136.31;;;15.69;65.88
55418;BME280;41287;47.554;7.844;2022-12-18T09:46:40;99132.47;;;15.75;65.86
55418;BME280;41287;47.554;7.844;2022-12-18T09:49:15;99136.28;;;15.74;66.07
55418;BME280;41287;47.554;7.844;2022-12-18T09:51:48;99137.88;;;15.75;66.28
55418;BME280;41287;47.554;7.844;2022-12-18T09:54:25;99141.41;;;15.76;66.46
55418;BME280;41287;47.554;7.844;2022-12-18T09:56:51;99155.41;;;15.78;66.37
55418;BME280;41287;47.554;7.844;2022-12-18T09:59:22;99149.19;;;15.77;66.59
55418;BME280;41287;47.554;7.844;2022-12-18T10:01:49;99148.09;;;15.78;66.69
55418;BME280;41287;47.554;7.844;2022-12-18T10:04:14;99143.50;;;15.79;66.71
55418;BME280;41287;47.554;7.844;2022-12-18T10:06:56;99142.69;;;15.78;66.73
55418;BME280;41287;47.554;7.844;2022-12-18T10:12:32;99132.41;;;15.80;66.91
55418;BME280;41287;47.554;7.844;2022-12-18T10:15:21;99131.59;;;15.80;66.84
55418;BME280;41287;47.554;7.844;2022-12-18T10:17:56;99137.81;;;15.80;66.89
55418;BME280;41287;47.554;7.844;2022-12-18T10:20:32;99133.22;;;15.81;66.92
55418;BME280;41287;47.554;7.844;2022-12-18T10:25:53;99124.03;;;15.82;67.06
55418;BME280;41287;47.554;7.844;2022-12-18T10:28:21;99118.31;;;15.84;66.88
55418;BME280;41287;47.554;7.844;2022-12-18T10:30:47;99103.97;;;15.83;67.41
55418;BME280;41287;47.554;7.844;2022-12-18T10:33:21;99112.09;;;15.83;67.18
55418;BME280;41287;47.554;7.844;2022-12-18T10:35:48;99110.19;;;15.84;67.27
55418;BME280;41287;47.554;7.844;2022-12-18T10:43:15;99114.22;;;15.86;67.35
55418;BME280;41287;47.554;7.844;2022-12-18T10:45:43;99111.53;;;15.86;67.23
55418;BME280;41287;47.554;7.844;2022-12-18T10:48:23;99105.03;;;15.87;67.18
55418;BME280;41287;47.554;7.844;2022-12-18T10:50:50;99099.63;;;15.87;67.24
55418;BME280;41287;47.554;7.844;2022-12-18T10:53:21;99095.03;;;15.88;67.37
55418;BME280;41287;47.554;7.844;2022-12-18T10:55:47;99103.94;;;15.88;67.33
55418;BME280;41287;47.554;7.844;2022-12-18T10:58:18;99102.84;;;15.89;67.30
55418;BME280;41287;47.554;7.844;2022-12-18T11:03:36;99087.44;;;15.90;67.38
55418;BME280;41287;47.554;7.844;2022-12-18T11:06:09;99084.44;;;15.91;67.36
55418;BME280;41287;47.554;7.844;2022-12-18T11:08:35;99083.63;;;15.91;67.37
55418;BME280;41287;47.554;7.844;2022-12-18T11:11:01;99079.81;;;15.92;67.42
55418;BME280;41287;47.554;7.844;2022-12-18T11:13:29;99082.53;;;15.92;67.27
55418;BME280;41287;47.554;7.844;2022-12-18T11:16:00;99092.25;;;15.93;67.21
55418;BME280;41287;47.554;7.844;2022-12-18T11:18:27;99088.47;;;15.94;67.33
55418;BME280;41287;47.554;7.844;2022-12-18T11:23:33;99084.66;;;15.95;67.23
55418;BME280;41287;47.554;7.844;2022-12-18T11:26:01;99081.97;;;15.95;67.29
55418;BME280;41287;47.554;7.844;2022-12-18T11:28:44;99074.94;;;15.94;67.25
55418;BME280;41287;47.554;7.844;2022-12-18T11:34:09;99069.25;;;15.95;67.23
55418;BME280;41287;47.554;7.844;2022-12-18T11:36:43;99071.63;;;15.97;67.19
55418;BME280;41287;47.554;7.844;2022-12-18T11:39:17;99071.34;;;15.98;67.20
55418;BME280;41287;47.554;7.844;2022-12-18T11:41:57;99072.44;;;15.97;67.16
55418;BME280;41287;47.554;7.844;2022-12-18T11:45:00;99062.44;;;15.98;67.22
55418;BME280;41287;47.554;7.844;2022-12-18T11:53:02;99072.97;;;15.99;66.95
55418;BME280;41287;47.554;7.844;2022-12-18T11:55:43;99064.06;;;15.99;67.34
55418;BME280;41287;47.554;7.844;2022-12-18T12:09:25;99042.94;;;16.01;67.35
55418;BME280;41287;47.554;7.844;2022-12-18T12:17:21;99044.56;;;16.02;67.32
55418;BME280;41287;47.554;7.844;2022-12-18T12:20:11;99037.53;;;16.01;67.19
55418;BME280;41287;47.554;7.844;2022-12-18T12:28:36;99049.34;;;16.05;67.30
55418;BME280;41287;47.554;7.844;2022-12-18T12:39:38;99018.81;;;16.04;66.90
55418;BME280;41287;47.554;7.844;2022-12-18T12:42:12;99020.44;;;16.05;67.03
55418;BME280;41287;47.554;7.844;2022-12-18T12:45:01;99009.63;;;16.05;67.08
55418;BME280;41287;47.554;7.844;2022-12-18T12:47:32;99013.13;;;16.06;67.04
55418;BME280;41287;47.554;7.844;2022-12-18T12:50:03;99010.41;;;16.06;67.12
55418;BME280;41287;47.554;7.844;2022-12-18T12:55:00;99011.75;;;16.08;67.02
55418;BME280;41287;47.554;7.844;2022-12-18T12:57:41;99016.34;;;16.08;67.11
55418;BME280;41287;47.554;7.844;2022-12-18T13:00:15;99021.75;;;16.08;66.87
55418;BME280;41287;47.554;7.844;2022-12-18T13:03:12;99019.84;;;16.08;66.82
55418;BME280;41287;47.554;7.844;2022-12-18T13:08:28;99022.28;;;16.10;67.07
55418;BME280;41287;47.554;7.844;2022-12-18T13:10:55;99011.47;;;16.10;66.92
55418;BME280;41287;47.554;7.844;2022-12-18T13:13:53;99023.03;;;16.10;66.93
55418;BME280;41287;47.554;7.844;2022-12-18T13:16:20;99015.75;;;16.11;66.97
55418;BME280;41287;47.554;7.844;2022-12-18T13:18:51;99020.34;;;16.10;66.93
55418;BME280;41287;47.554;7.844;2022-12-18T13:21:30;99015.75;;;16.11;67.05
55418;BME280;41287;47.554;7.844;2022-12-18T13:24:20;99011.47;;;16.10;66.93
55418;BME280;41287;47.554;7.844;2022-12-18T13:26:47;99016.25;;;16.13;66.92
55418;BME280;41287;47.554;7.844;2022-12-18T13:29:40;99016.25;;;16.13;67.07
55418;BME280;41287;47.554;7.844;2022-12-18T13:32:19;99016.25;;;16.13;67.02
55418;BME280;41287;47.554;7.844;2022-12-18T13:34:45;99008.16;;;16.13;66.97
55418;BME280;41287;47.554;7.844;2022-12-18T13:39:58;99016.50;;;16.16;66.88
55418;BME280;41287;47.554;7.844;2022-12-18T13:45:58;99023.78;;;16.16;67.01
55418;BME280;41287;47.554;7.844;2022-12-18T13:48:26;99012.66;;;16.17;67.00
55418;BME280;41287;47.554;7.844;2022-12-18T13:50:59;99018.38;;;16.16;66.86
55418;BME280;41287;47.554;7.844;2022-12-18T13:53:33;99004.88;;;16.16;66.84
55418;BME280;41287;47.554;7.844;2022-12-18T13:55:59;99011.88;;;16.17;67.00
55418;BME280;41287;47.554;7.844;2022-12-18T13:58:27;99015.38;;;16.17;66.94
55418;BME280;41287;47.554;7.844;2022-12-18T14:00:52;99005.34;;;16.18;67.04
55418;BME280;41287;47.554;7.844;2022-12-18T14:03:23;99009.66;;;16.19;66.95
55418;BME280;41287;47.554;7.844;2022-12-18T14:06:00;99006.16;;;16.18;66.81
55418;BME280;41287;47.554;7.844;2022-12-18T14:08:32;98996.97;;;16.19;66.84
55418;BME280;41287;47.554;7.844;2022-12-18T14:10:58;99005.88;;;16.20;66.92
55418;BME280;41287;47.554;7.844;2022-12-18T14:13:29;99005.88;;;16.20;66.76
55418;BME280;41287;47.554;7.844;2022-12-18T14:15:56;99014.00;;;16.20;66.90
55418;BME280;41287;47.554;7.844;2022-12-18T14:20:52;99006.69;;;16.20;66.73
55418;BME280;41287;47.554;7.844;2022-12-18T14:23:36;98993.97;;;16.21;66.90
55418;BME280;41287;47.554;7.844;2022-12-18T14:26:03;98995.28;;;16.24;66.59
55418;BME280;41287;47.554;7.844;2022-12-18T14:28:29;98996.88;;;16.25;66.68
55418;BME280;41287;47.554;7.844;2022-12-18T14:30:55;98990.66;;;16.24;66.67
55418;BME280;41287;47.554;7.844;2022-12-18T14:33:26;98989.06;;;16.23;66.79
55418;BME280;41287;47.554;7.844;2022-12-18T14:36:00;98989.06;;;16.23;66.76
55418;BME280;41287;47.554;7.844;2022-12-18T14:38:30;98990.97;;;16.23;66.62
55418;BME280;41287;47.554;7.844;2022-12-18T14:41:15;98990.66;;;16.24;66.62
55418;BME280;41287;47.554;7.844;2022-12-18T14:43:43;98999.56;;;16.25;66.82